createdAt,value
2018-10-01T00:02:34.598Z,7.73
2018-10-01T00:05:09.237Z,6.60
2018-10-01T00:07:44.977Z,6.03
2018-10-01T00:10:20.630Z,6.60
2018-10-01T00:12:56.259Z,7.40
2018-10-01T00:15:31.100Z,5.87
2018-10-01T00:18:06.267Z,6.70
2018-10-01T00:20:46.155Z,6.67
2018-10-01T00:23:20.582Z,7.13
2018-10-01T00:25:55.479Z,7.83
2018-10-01T00:28:30.068Z,7.07
2018-10-01T00:31:04.591Z,6.53
2018-10-01T00:33:39.538Z,5.90
2018-10-01T00:36:14.052Z,6.57
2018-10-01T00:38:48.644Z,6.77
2018-10-01T00:41:23.272Z,6.77
2018-10-01T00:43:58.475Z,7.00
2018-10-01T00:46:38.815Z,6.47
2018-10-01T00:49:13.205Z,7.60
2018-10-01T00:51:47.828Z,7.63
2018-10-01T00:54:22.774Z,6.80
2018-10-01T00:56:57.280Z,7.13
2018-10-01T00:59:31.753Z,7.17
2018-10-01T01:02:06.468Z,6.90
2018-10-01T01:04:40.793Z,6.47
2018-10-01T01:07:15.906Z,7.97
2018-10-01T01:09:51.164Z,6.40
2018-10-01T01:12:26.409Z,6.27
2018-10-01T01:15:01.837Z,6.40
2018-10-01T01:17:36.769Z,6.10
2018-10-01T01:20:11.159Z,5.77
2018-10-01T01:22:46.199Z,6.60
2018-10-01T01:25:21.321Z,6.33
2018-10-01T01:27:55.599Z,7.07
2018-10-01T01:30:29.952Z,6.63
2018-10-01T01:33:04.889Z,6.10
2018-10-01T01:35:39.383Z,6.77
2018-10-01T01:38:13.675Z,6.93
2018-10-01T01:40:48.181Z,6.30
2018-10-01T01:43:23.359Z,7.67
2018-10-01T01:45:58.574Z,6.77
2018-10-01T01:48:32.920Z,6.93
2018-10-01T01:51:07.723Z,9.30
2018-10-01T01:53:42.181Z,6.37
2018-10-01T01:56:16.568Z,6.43
2018-10-01T01:58:50.900Z,5.73
2018-10-01T02:01:26.240Z,6.83
2018-10-01T02:04:01.696Z,6.53
2018-10-01T02:06:36.168Z,7.53
2018-10-01T02:09:12.180Z,7.20
2018-10-01T02:11:46.504Z,8.27
2018-10-01T02:14:22.156Z,6.53
2018-10-01T02:16:57.300Z,6.40
2018-10-01T02:19:31.588Z,6.70
2018-10-01T02:22:06.641Z,6.40
2018-10-01T02:24:41.716Z,6.47
2018-10-01T02:27:16.587Z,7.07
2018-10-01T02:29:51.003Z,7.10
2018-10-01T02:32:35.673Z,6.87
2018-10-01T02:35:10.596Z,6.70
2018-10-01T02:37:44.933Z,5.73
2018-10-01T02:40:19.460Z,6.77
2018-10-01T02:42:54.793Z,5.93
2018-10-01T02:45:29.771Z,6.73
2018-10-01T02:48:04.087Z,6.43
2018-10-01T02:50:39.087Z,7.13
2018-10-01T02:53:18.959Z,6.00
2018-10-01T02:55:53.659Z,6.27
2018-10-01T02:58:28.033Z,7.20
2018-10-01T03:01:03.257Z,5.97
2018-10-01T03:03:37.683Z,6.30
2018-10-01T03:06:11.984Z,6.70
2018-10-01T03:08:50.788Z,6.93
2018-10-01T03:11:26.052Z,6.87
2018-10-01T03:14:01.516Z,7.20
2018-10-01T03:16:38.248Z,7.10
2018-10-01T03:19:12.564Z,6.63
2018-10-01T03:21:47.706Z,6.67
2018-10-01T03:24:22.833Z,6.60
2018-10-01T03:26:57.236Z,7.17
2018-10-01T03:29:31.988Z,7.20
2018-10-01T03:32:12.169Z,6.80
2018-10-01T03:34:47.187Z,6.63
2018-10-01T03:37:21.631Z,7.17
2018-10-01T03:39:56.687Z,7.07
2018-10-01T03:42:31.571Z,6.70
2018-10-01T03:45:06.764Z,6.87
2018-10-01T03:47:41.311Z,6.93
2018-10-01T03:50:15.672Z,6.43
2018-10-01T03:52:50.288Z,7.97
2018-10-01T03:55:24.754Z,8.40
2018-10-01T03:57:59.957Z,7.93
2018-10-01T04:00:36.205Z,7.23
2018-10-01T04:03:10.669Z,7.27
2018-10-01T04:05:44.883Z,7.40
2018-10-01T04:08:19.308Z,6.53
2018-10-01T04:10:54.617Z,7.10
2018-10-01T04:13:30.141Z,6.47
2018-10-01T04:16:04.557Z,8.27
2018-10-01T04:18:39.620Z,6.83
2018-10-01T04:21:15.059Z,7.90
2018-10-01T04:23:50.162Z,7.90
2018-10-01T04:26:25.162Z,7.37
2018-10-01T04:28:59.533Z,7.77
2018-10-01T04:31:34.073Z,8.33
2018-10-01T04:34:09.535Z,8.07
2018-10-01T04:36:43.807Z,7.40
2018-10-01T04:39:18.851Z,8.37
2018-10-01T04:41:53.313Z,8.53
2018-10-01T04:44:28.395Z,9.87
2018-10-01T04:47:02.948Z,8.93
2018-10-01T04:49:37.341Z,10.40
2018-10-01T04:52:12.215Z,10.27
2018-10-01T04:54:46.667Z,8.77
2018-10-01T04:57:21.882Z,8.43
2018-10-01T04:59:58.854Z,9.03
2018-10-01T05:02:33.647Z,9.40
2018-10-01T05:05:08.159Z,8.10
2018-10-01T05:07:42.554Z,9.80
2018-10-01T05:10:17.943Z,7.83
2018-10-01T05:12:52.916Z,7.60
2018-10-01T05:15:27.248Z,8.80
2018-10-01T05:18:02.258Z,8.80
2018-10-01T05:20:37.423Z,9.53
2018-10-01T05:23:12.752Z,8.70
2018-10-01T05:25:47.818Z,10.00
2018-10-01T05:28:22.328Z,8.70
2018-10-01T05:30:56.683Z,7.53
2018-10-01T05:33:31.992Z,7.97
2018-10-01T05:36:07.092Z,8.27
2018-10-01T05:38:41.938Z,7.60
2018-10-01T05:41:16.313Z,8.77
2018-10-01T05:43:51.642Z,8.63
2018-10-01T05:46:26.624Z,9.00
2018-10-01T05:49:01.200Z,8.30
2018-10-01T05:51:35.679Z,9.67
2018-10-01T05:54:11.198Z,9.10
2018-10-01T05:56:45.759Z,8.57
2018-10-01T05:59:20.204Z,8.30
2018-10-01T06:01:55.344Z,8.43
2018-10-01T06:04:29.888Z,8.30
2018-10-01T06:07:04.512Z,10.83
2018-10-01T06:09:39.764Z,7.43
2018-10-01T06:12:14.278Z,7.60
2018-10-01T06:14:49.583Z,8.33
2018-10-01T06:17:24.804Z,6.77
2018-10-01T06:20:00.191Z,7.50
2018-10-01T06:22:35.304Z,7.60
2018-10-01T06:25:10.721Z,6.73
2018-10-01T06:27:45.254Z,7.73
2018-10-01T06:30:19.704Z,7.63
2018-10-01T06:32:55.264Z,6.97
2018-10-01T06:35:30.563Z,7.00
2018-10-01T06:38:04.949Z,7.37
2018-10-01T06:40:39.412Z,7.10
2018-10-01T06:43:14.313Z,6.80
2018-10-01T06:45:48.730Z,6.80
2018-10-01T06:48:23.280Z,7.07
2018-10-01T06:50:58.754Z,7.53
2018-10-01T06:53:34.327Z,6.87
2018-10-01T06:56:08.812Z,8.03
2018-10-01T06:58:43.226Z,7.93
2018-10-01T07:01:18.266Z,6.83
2018-10-01T07:03:52.683Z,5.40
2018-10-01T07:06:27.006Z,6.43
2018-10-01T07:09:01.544Z,6.60
2018-10-01T07:11:36.117Z,6.70
2018-10-01T07:14:11.111Z,6.70
2018-10-01T07:16:46.674Z,5.97
2018-10-01T07:19:27.629Z,5.80
2018-10-01T07:22:02.738Z,6.40
2018-10-01T07:24:38.066Z,5.63
2018-10-01T07:27:12.388Z,6.20
2018-10-01T07:29:46.912Z,5.50
2018-10-01T07:32:21.672Z,6.30
2018-10-01T07:34:57.023Z,6.00
2018-10-01T07:37:31.492Z,5.50
2018-10-01T07:40:06.067Z,7.20
2018-10-01T07:42:41.427Z,5.90
2018-10-01T07:45:16.331Z,6.63
2018-10-01T07:47:50.886Z,6.50
2018-10-01T07:50:26.025Z,6.80
2018-10-01T07:53:01.060Z,6.20
2018-10-01T07:55:35.500Z,5.60
2018-10-01T07:58:10.413Z,6.07
2018-10-01T08:00:45.512Z,7.20
2018-10-01T08:03:19.933Z,7.07
2018-10-01T08:05:54.520Z,7.43
2018-10-01T08:08:29.118Z,6.83
2018-10-01T08:11:03.433Z,6.20
2018-10-01T08:13:38.751Z,6.93
2018-10-01T08:16:13.110Z,7.07
2018-10-01T08:18:48.176Z,6.00
2018-10-01T08:21:23.433Z,7.63
2018-10-01T08:23:58.892Z,7.80
2018-10-01T08:26:33.976Z,6.30
2018-10-01T08:29:09.134Z,7.53
2018-10-01T08:31:44.146Z,7.27
2018-10-01T08:34:19.254Z,6.60
2018-10-01T08:36:53.738Z,6.07
2018-10-01T08:39:28.491Z,7.07
2018-10-01T08:42:02.955Z,5.70
2018-10-01T08:44:37.943Z,7.07
2018-10-01T08:47:13.146Z,6.47
2018-10-01T08:50:05.343Z,8.07
2018-10-01T08:54:46.752Z,7.07
2018-10-01T08:57:21.335Z,8.47
2018-10-01T08:59:59.179Z,7.73
2018-10-01T09:02:34.355Z,7.00
2018-10-01T09:05:09.598Z,6.57
2018-10-01T09:07:43.911Z,6.20
2018-10-01T09:10:18.839Z,7.70
2018-10-01T09:12:54.332Z,8.60
2018-10-01T09:15:29.364Z,6.90
2018-10-01T09:18:04.326Z,7.27
2018-10-01T09:20:39.648Z,8.47
2018-10-01T09:23:14.770Z,6.83
2018-10-01T09:25:49.582Z,7.43
2018-10-01T09:28:24.019Z,6.80
2018-10-01T09:30:58.494Z,7.00
2018-10-01T09:33:33.896Z,7.80
2018-10-01T09:36:09.001Z,8.93
2018-10-01T09:38:43.340Z,8.20
2018-10-01T09:41:18.287Z,8.90
2018-10-01T09:43:53.735Z,9.00
2018-10-01T09:46:28.223Z,8.50
2018-10-01T09:49:02.963Z,7.23
2018-10-01T09:51:37.333Z,8.23
2018-10-01T09:54:11.637Z,8.97
2018-10-01T09:56:45.988Z,8.57
2018-10-01T09:59:20.555Z,8.40
2018-10-01T10:01:55.657Z,9.20
2018-10-01T10:04:30.657Z,10.60
2018-10-01T10:07:05.016Z,9.67
2018-10-01T10:09:39.384Z,9.83
2018-10-01T10:12:13.847Z,10.80
2018-10-01T10:14:49.015Z,9.23
2018-10-01T10:17:24.239Z,8.83
2018-10-01T10:19:59.627Z,9.00
2018-10-01T10:22:34.958Z,9.57
2018-10-01T10:25:10.116Z,9.30
2018-10-01T10:27:45.459Z,10.43
2018-10-01T10:30:21.267Z,11.30
2018-10-01T10:32:56.427Z,10.60
2018-10-01T10:35:31.645Z,10.50
2018-10-01T10:38:06.164Z,10.87
2018-10-01T10:40:40.604Z,10.93
2018-10-01T10:43:15.712Z,11.07
2018-10-01T10:45:50.123Z,12.37
2018-10-01T10:48:24.803Z,11.00
2018-10-01T10:50:59.418Z,10.63
2018-10-01T10:53:33.736Z,11.83
2018-10-01T10:56:08.797Z,10.40
2018-10-01T10:58:43.921Z,11.20
2018-10-01T11:01:19.097Z,11.00
2018-10-01T11:03:54.040Z,11.07
2018-10-01T11:06:28.511Z,9.37
2018-10-01T11:09:02.867Z,10.07
2018-10-01T11:11:38.149Z,9.60
2018-10-01T11:14:13.299Z,10.63
2018-10-01T11:16:48.041Z,9.20
2018-10-01T11:19:22.565Z,9.03
2018-10-01T11:21:57.550Z,9.40
2018-10-01T11:24:32.789Z,8.27
2018-10-01T11:27:07.796Z,8.33
2018-10-01T11:29:42.082Z,8.60
2018-10-01T11:32:17.324Z,7.67
2018-10-01T11:34:53.642Z,8.27
2018-10-01T11:37:28.748Z,7.27
2018-10-01T11:40:03.788Z,7.50
2018-10-01T11:42:39.342Z,7.07
2018-10-01T11:45:13.862Z,7.20
2018-10-01T11:47:48.485Z,6.03
2018-10-01T11:50:23.352Z,7.20
2018-10-01T11:52:58.339Z,7.10
2018-10-01T11:55:33.041Z,7.13
2018-10-01T11:58:07.839Z,7.47
2018-10-01T12:00:43.076Z,7.17
2018-10-01T12:03:17.768Z,7.30
2018-10-01T12:05:52.753Z,8.10
2018-10-01T12:08:27.151Z,7.40
2018-10-01T12:11:01.655Z,6.93
2018-10-01T12:13:36.548Z,7.10
2018-10-01T12:16:10.906Z,7.13
2018-10-01T12:18:46.042Z,6.33
2018-10-01T12:21:21.346Z,5.60
2018-10-01T12:23:56.550Z,5.87
2018-10-01T12:26:31.540Z,5.40
2018-10-01T12:29:06.602Z,4.67
2018-10-01T12:31:41.569Z,4.50
2018-10-01T12:34:17.051Z,4.17
2018-10-01T12:36:52.252Z,5.20
2018-10-01T12:39:26.845Z,4.30
2018-10-01T12:42:01.135Z,3.70
2018-10-01T12:44:36.424Z,3.43
2018-10-01T12:47:10.918Z,3.30
2018-10-01T12:49:45.339Z,3.47
2018-10-01T12:52:20.290Z,3.73
2018-10-01T12:54:54.781Z,3.30
2018-10-01T12:57:29.363Z,4.17
2018-10-01T13:00:03.775Z,4.00
2018-10-01T13:02:38.839Z,3.10
2018-10-01T13:05:13.951Z,3.30
2018-10-01T13:07:48.727Z,3.30
2018-10-01T13:10:23.300Z,3.70
2018-10-01T13:12:58.838Z,3.47
2018-10-01T13:15:33.734Z,4.10
2018-10-01T13:18:09.712Z,2.80
2018-10-01T13:20:44.643Z,2.60
2018-10-01T13:23:20.214Z,3.60
2018-10-01T13:25:55.953Z,2.70
2018-10-01T13:28:30.563Z,3.40
2018-10-01T13:31:05.560Z,2.53
2018-10-01T13:33:41.770Z,2.70
2018-10-01T13:36:17.264Z,2.70
2018-10-01T13:38:51.735Z,2.13
2018-10-01T13:41:27.858Z,2.10
2018-10-01T13:44:03.156Z,2.13
2018-10-01T13:46:37.623Z,3.13
2018-10-01T13:49:12.448Z,2.37
2018-10-01T13:51:47.656Z,2.40
2018-10-01T13:54:22.952Z,2.30
2018-10-01T13:56:57.414Z,3.03
2018-10-01T13:59:32.686Z,2.00
2018-10-01T14:02:08.602Z,1.80
2018-10-01T14:04:45.096Z,2.80
2018-10-01T14:07:19.638Z,2.13
2018-10-01T14:09:55.767Z,2.47
2018-10-01T14:12:30.825Z,2.00
2018-10-01T14:15:07.490Z,1.67
2018-10-01T14:17:42.737Z,1.57
2018-10-01T14:20:18.188Z,1.73
2018-10-01T14:22:53.453Z,1.83
2018-10-01T14:25:30.175Z,1.50
2018-10-01T14:28:04.704Z,1.20
2018-10-01T14:30:40.292Z,1.67
2018-10-01T14:33:16.015Z,1.33
2018-10-01T14:35:51.538Z,1.40
2018-10-01T14:38:27.036Z,1.20
2018-10-01T14:41:02.254Z,1.60
2018-10-01T14:43:37.655Z,2.20
2018-10-01T14:46:11.961Z,1.43
2018-10-01T14:48:46.332Z,1.10
2018-10-01T14:51:21.440Z,1.70
2018-10-01T14:53:55.766Z,1.80
2018-10-01T14:56:30.083Z,1.37
2018-10-01T14:59:05.260Z,1.80
2018-10-01T15:01:40.783Z,1.47
2018-10-01T15:04:15.030Z,3.10
2018-10-01T15:06:49.383Z,1.93
2018-10-01T15:09:23.733Z,2.63
2018-10-01T15:11:58.127Z,1.77
2018-10-01T15:14:33.032Z,1.67
2018-10-01T15:17:08.444Z,1.87
2018-10-01T15:19:44.523Z,1.63
2018-10-01T15:22:19.649Z,1.87
2018-10-01T15:24:54.730Z,1.53
2018-10-01T15:27:29.232Z,1.83
2018-10-01T15:30:04.841Z,1.23
2018-10-01T15:32:40.034Z,1.50
2018-10-01T15:35:15.144Z,2.27
2018-10-01T15:37:50.085Z,2.17
2018-10-01T15:40:24.447Z,1.40
2018-10-01T15:42:59.372Z,2.10
2018-10-01T15:45:33.894Z,4.60
2018-10-01T15:48:09.283Z,1.90
2018-10-01T15:50:43.548Z,2.10
2018-10-01T15:53:17.948Z,1.53
2018-10-01T15:55:53.230Z,2.50
2018-10-01T15:58:27.660Z,1.53
2018-10-01T16:01:02.791Z,1.60
2018-10-01T16:03:37.722Z,1.50
2018-10-01T16:06:12.239Z,1.63
2018-10-01T16:08:46.723Z,1.90
2018-10-01T16:11:21.159Z,2.00
2018-10-01T16:13:56.118Z,1.90
2018-10-01T16:16:31.092Z,1.53
2018-10-01T16:19:06.994Z,2.33
2018-10-01T16:21:42.050Z,1.93
2018-10-01T16:24:17.340Z,2.00
2018-10-01T16:26:52.763Z,2.00
2018-10-01T16:29:27.088Z,2.10
2018-10-01T16:32:01.473Z,2.30
2018-10-01T16:34:36.559Z,2.33
2018-10-01T16:37:11.799Z,1.90
2018-10-01T16:39:46.101Z,1.90
2018-10-01T16:42:21.232Z,2.27
2018-10-01T16:44:56.357Z,1.73
2018-10-01T16:47:30.939Z,2.47
2018-10-01T16:50:05.777Z,3.20
2018-10-01T16:52:40.868Z,3.07
2018-10-01T16:55:15.744Z,3.77
2018-10-01T16:57:50.116Z,2.60
2018-10-01T17:00:26.171Z,3.20
2018-10-01T17:03:00.715Z,3.40
2018-10-01T17:05:35.642Z,3.30
2018-10-01T17:08:10.900Z,3.70
2018-10-01T17:10:45.396Z,4.17
2018-10-01T17:13:21.176Z,3.80
2018-10-01T17:15:56.395Z,4.00
2018-10-01T17:18:31.236Z,4.07
2018-10-01T17:21:06.786Z,4.70
2018-10-01T17:23:42.360Z,4.00
2018-10-01T17:26:17.867Z,4.10
2018-10-01T17:28:52.632Z,4.23
2018-10-01T17:31:27.929Z,4.17
2018-10-01T17:34:03.132Z,3.93
2018-10-01T17:36:38.847Z,4.37
2018-10-01T17:39:13.327Z,4.00
2018-10-01T17:41:47.712Z,3.30
2018-10-01T17:44:23.112Z,3.57
2018-10-01T17:46:57.715Z,4.30
2018-10-01T17:49:32.291Z,3.50
2018-10-01T17:52:07.275Z,4.03
2018-10-01T17:54:41.718Z,4.00
2018-10-01T17:57:16.376Z,4.40
2018-10-01T17:59:51.665Z,4.27
2018-10-01T18:02:28.055Z,4.27
2018-10-01T18:05:02.495Z,3.93
2018-10-01T18:07:37.360Z,4.03
2018-10-01T18:10:12.273Z,4.10
2018-10-01T18:12:48.659Z,4.20
2018-10-01T18:15:24.511Z,3.80
2018-10-01T18:17:59.636Z,4.33
2018-10-01T18:20:34.584Z,3.63
2018-10-01T18:23:10.145Z,5.33
2018-10-01T18:25:45.624Z,3.87
2018-10-01T18:28:20.142Z,5.00
2018-10-01T18:30:54.832Z,4.17
2018-10-01T18:33:30.380Z,3.93
2018-10-01T18:36:04.986Z,4.70
2018-10-01T18:38:40.440Z,5.20
2018-10-01T18:41:15.134Z,5.00
2018-10-01T18:43:50.979Z,4.07
2018-10-01T18:46:25.739Z,4.07
2018-10-01T18:49:01.207Z,4.20
2018-10-01T18:51:35.832Z,3.77
2018-10-01T18:54:10.545Z,3.40
2018-10-01T18:56:45.099Z,4.70
2018-10-01T18:59:20.237Z,4.10
2018-10-01T19:01:56.274Z,4.20
2018-10-01T19:04:31.882Z,3.90
2018-10-01T19:07:06.566Z,1.80
2018-10-01T19:09:41.044Z,1.30
2018-10-01T19:12:16.741Z,1.47
2018-10-01T19:14:57.710Z,1.27
2018-10-01T19:17:34.217Z,1.10
2018-10-01T19:20:10.188Z,1.30
2018-10-01T19:22:46.419Z,1.37
2018-10-01T19:25:21.607Z,0.83
2018-10-01T19:27:57.404Z,0.90
2018-10-01T19:30:32.032Z,1.10
2018-10-01T19:33:08.226Z,0.80
2018-10-01T19:35:44.087Z,1.00
2018-10-01T19:38:19.473Z,0.80
2018-10-01T19:40:54.506Z,1.20
2018-10-01T19:43:29.402Z,1.00
2018-10-01T19:46:05.684Z,1.00
2018-10-01T19:48:40.272Z,1.07
2018-10-01T19:51:15.670Z,0.70
2018-10-01T19:53:50.423Z,1.07
2018-10-01T19:56:25.024Z,0.80
2018-10-01T19:58:59.779Z,0.90
2018-10-01T20:01:35.283Z,1.07
2018-10-01T20:04:09.835Z,0.73
2018-10-01T20:06:44.419Z,1.20
2018-10-01T20:09:19.836Z,1.10
2018-10-01T20:13:19.336Z,0.93
2018-10-01T20:15:55.752Z,1.13
2018-10-01T20:18:30.921Z,1.07
2018-10-01T20:21:06.001Z,1.10
2018-10-01T20:23:41.604Z,1.10
2018-10-01T20:26:16.873Z,1.20
2018-10-01T20:28:54.249Z,0.97
2018-10-01T20:31:28.555Z,1.00
2018-10-01T20:34:04.160Z,0.90
2018-10-01T20:36:38.576Z,1.03
2018-10-01T20:39:13.970Z,1.30
2018-10-01T20:41:49.575Z,0.93
2018-10-01T20:44:25.551Z,1.20
2018-10-01T20:47:00.300Z,1.10
2018-10-01T20:49:34.708Z,1.53
2018-10-01T20:52:09.144Z,0.90
2018-10-01T20:54:43.450Z,0.97
2018-10-01T20:57:17.871Z,1.27
2018-10-01T20:59:52.759Z,1.17
2018-10-01T21:02:27.600Z,1.10
2018-10-01T21:05:02.018Z,0.90
2018-10-01T21:07:36.859Z,1.00
2018-10-01T21:10:11.312Z,0.77
2018-10-01T21:12:46.751Z,0.90
2018-10-01T21:15:21.788Z,1.30
2018-10-01T21:17:56.891Z,0.90
2018-10-01T21:20:31.443Z,0.80
2018-10-01T21:23:06.724Z,0.90
2018-10-01T21:25:41.735Z,0.90
2018-10-01T21:28:16.259Z,1.20
2018-10-01T21:30:50.645Z,0.83
2018-10-01T21:33:25.909Z,0.97
2018-10-01T21:36:00.351Z,0.87
2018-10-01T21:38:35.583Z,0.97
2018-10-01T21:41:10.127Z,0.93
2018-10-01T21:43:47.129Z,0.90
2018-10-01T21:46:23.352Z,1.00
2018-10-01T21:48:58.071Z,0.70
2018-10-01T21:51:32.544Z,1.20
2018-10-01T21:54:07.112Z,1.20
2018-10-01T21:56:41.675Z,0.77
2018-10-01T21:59:16.258Z,1.30
2018-10-01T22:01:55.797Z,1.20
2018-10-01T22:04:30.184Z,1.10
2018-10-01T22:07:04.833Z,1.10
2018-10-01T22:09:39.196Z,1.20
2018-10-01T22:12:13.831Z,1.23
2018-10-01T22:14:48.760Z,0.90
2018-10-01T22:17:24.088Z,1.07
2018-10-01T22:19:58.468Z,0.90
2018-10-01T22:22:33.463Z,1.20
2018-10-01T22:25:08.572Z,1.40
2018-10-01T22:27:43.411Z,1.60
2018-10-01T22:30:18.495Z,1.00
2018-10-01T22:32:52.860Z,0.90
2018-10-01T22:35:27.912Z,0.83
2018-10-01T22:38:03.164Z,0.80
2018-10-01T22:40:37.692Z,0.90
2018-10-01T22:43:13.170Z,1.20
2018-10-01T22:45:48.267Z,1.30
2018-10-01T22:48:23.420Z,1.10
2018-10-01T22:50:57.932Z,1.37
2018-10-01T22:53:32.319Z,1.60
2018-10-01T22:56:06.698Z,1.30
2018-10-01T22:58:41.084Z,1.20
2018-10-01T23:01:16.200Z,1.40
2018-10-01T23:03:50.663Z,1.00
2018-10-01T23:06:25.310Z,1.10
2018-10-01T23:08:59.760Z,2.00
2018-10-01T23:11:35.539Z,1.70
2018-10-01T23:14:10.449Z,0.93
2018-10-01T23:16:46.000Z,1.60
2018-10-01T23:19:20.587Z,1.47
2018-10-01T23:21:56.691Z,2.03
2018-10-01T23:24:31.774Z,1.33
2018-10-01T23:27:06.651Z,1.23
2018-10-01T23:29:41.164Z,1.73
2018-10-01T23:32:15.681Z,2.13
2018-10-01T23:34:50.479Z,1.50
2018-10-01T23:37:24.887Z,2.13
2018-10-01T23:40:00.026Z,1.40
2018-10-01T23:42:35.301Z,1.60
2018-10-01T23:45:10.786Z,1.83
2018-10-01T23:47:45.288Z,1.63
2018-10-01T23:50:19.695Z,2.00
2018-10-01T23:52:55.070Z,1.50
2018-10-01T23:55:29.549Z,1.57
2018-10-01T23:58:03.895Z,1.70
